createdAt,value
2022-08-24T00:00:20.776Z,18.70
2022-08-24T00:01:37.418Z,18.69
2022-08-24T00:02:39.332Z,18.68
2022-08-24T00:03:42.444Z,18.66
2022-08-24T00:04:44.173Z,18.64
2022-08-24T00:05:48.805Z,18.63
2022-08-24T00:06:50.608Z,18.63
2022-08-24T00:07:53.168Z,18.63
2022-08-24T00:08:58.133Z,18.62
2022-08-24T00:10:00.502Z,18.61
2022-08-24T00:11:02.521Z,18.60
2022-08-24T00:12:05.258Z,18.60
2022-08-24T00:13:07.290Z,18.58
2022-08-24T00:14:09.330Z,18.57
2022-08-24T00:15:13.415Z,18.56
2022-08-24T00:16:17.086Z,18.56
2022-08-24T00:17:20.592Z,18.56
2022-08-24T00:18:23.372Z,18.56
2022-08-24T00:19:25.857Z,18.57
2022-08-24T00:20:29.152Z,18.56
2022-08-24T00:21:30.813Z,18.57
2022-08-24T00:22:32.475Z,18.57
2022-08-24T00:23:36.193Z,18.55
2022-08-24T00:24:38.190Z,18.55
2022-08-24T00:25:40.050Z,18.53
2022-08-24T00:26:41.759Z,18.53
2022-08-24T00:27:43.549Z,18.52
2022-08-24T00:28:45.451Z,18.52
2022-08-24T00:29:49.349Z,18.51
2022-08-24T00:30:51.753Z,18.50
2022-08-24T00:31:54.064Z,18.51
2022-08-24T00:32:56.508Z,18.50
2022-08-24T00:33:59.436Z,18.50
2022-08-24T00:35:01.163Z,18.50
2022-08-24T00:36:04.923Z,18.50
2022-08-24T00:37:06.758Z,18.51
2022-08-24T00:38:08.612Z,18.53
2022-08-24T00:39:12.959Z,18.52
2022-08-24T00:40:23.282Z,18.52
2022-08-24T00:41:25.142Z,18.49
2022-08-24T00:42:26.985Z,18.48
2022-08-24T00:43:29.076Z,18.46
2022-08-24T00:44:30.815Z,18.45
2022-08-24T00:45:42.834Z,18.44
2022-08-24T00:46:51.751Z,18.42
2022-08-24T00:48:06.506Z,18.42
2022-08-24T00:49:19.642Z,18.41
2022-08-24T00:50:33.368Z,18.41
2022-08-24T00:51:54.957Z,18.41
2022-08-24T00:53:01.684Z,18.40
2022-08-24T00:54:13.639Z,18.40
2022-08-24T00:55:23.556Z,18.39
2022-08-24T00:56:42.653Z,18.38
2022-08-24T00:57:49.432Z,18.37
2022-08-24T00:58:57.605Z,18.37
2022-08-24T01:00:08.187Z,18.36
2022-08-24T01:01:14.341Z,18.35
2022-08-24T01:02:23.271Z,18.35
2022-08-24T01:03:27.980Z,18.37
2022-08-24T01:04:39.393Z,18.38
2022-08-24T01:05:41.497Z,18.39
2022-08-24T01:06:43.370Z,18.40
2022-08-24T01:07:50.640Z,18.40
2022-08-24T01:08:56.328Z,18.41
2022-08-24T01:10:06.014Z,18.40
2022-08-24T01:11:13.615Z,18.40
2022-08-24T01:12:17.465Z,18.41
2022-08-24T01:13:20.475Z,18.44
2022-08-24T01:14:24.458Z,18.46
2022-08-24T01:15:26.844Z,18.45
2022-08-24T01:16:47.325Z,18.44
2022-08-24T01:18:08.581Z,18.42
2022-08-24T01:19:29.388Z,18.40
2022-08-24T01:20:31.500Z,18.38
2022-08-24T01:21:52.487Z,18.37
2022-08-24T01:23:09.822Z,18.37
2022-08-24T01:24:14.069Z,18.37
2022-08-24T01:25:17.070Z,18.36
2022-08-24T01:26:25.789Z,18.35
2022-08-24T01:27:28.981Z,18.34
2022-08-24T01:28:31.464Z,18.34
2022-08-24T01:29:36.070Z,18.32
2022-08-24T01:30:38.277Z,18.33
2022-08-24T01:31:40.932Z,18.33
2022-08-24T01:32:53.462Z,18.33
2022-08-24T01:33:56.719Z,18.34
2022-08-24T01:34:59.579Z,18.35
2022-08-24T01:36:30.652Z,18.37
2022-08-24T01:37:33.000Z,18.38
2022-08-24T01:38:35.541Z,18.38
2022-08-24T01:39:46.097Z,18.39
2022-08-24T01:40:55.207Z,18.40
2022-08-24T01:41:57.803Z,18.41
2022-08-24T01:42:59.466Z,18.42
2022-08-24T01:44:01.316Z,18.43
2022-08-24T01:45:05.811Z,18.46
2022-08-24T01:46:08.509Z,18.48
2022-08-24T01:47:12.981Z,18.49
2022-08-24T01:48:15.333Z,18.49
2022-08-24T01:49:30.321Z,18.49
2022-08-24T01:50:34.575Z,18.51
2022-08-24T01:51:36.359Z,18.52
2022-08-24T01:53:03.887Z,18.51
2022-08-24T01:54:04.558Z,18.49
2022-08-24T01:55:09.833Z,18.47
2022-08-24T01:56:11.571Z,18.46
2022-08-24T01:57:16.060Z,18.45
2022-08-24T01:58:19.086Z,18.44
2022-08-24T01:59:21.006Z,18.42
2022-08-24T02:00:22.859Z,18.41
2022-08-24T02:01:29.229Z,18.39
2022-08-24T02:02:32.161Z,18.38
2022-08-24T02:03:34.625Z,18.36
2022-08-24T02:04:37.629Z,18.35
2022-08-24T02:05:39.542Z,18.34
2022-08-24T02:06:44.614Z,18.33
2022-08-24T02:07:48.744Z,18.31
2022-08-24T02:08:50.486Z,18.30
2022-08-24T02:09:52.941Z,18.28
2022-08-24T02:10:56.745Z,18.29
2022-08-24T02:11:59.110Z,18.29
2022-08-24T02:13:02.447Z,18.28
2022-08-24T02:14:05.916Z,18.28
2022-08-24T02:15:09.480Z,18.28
2022-08-24T02:16:11.796Z,18.28
2022-08-24T02:17:13.524Z,18.27
2022-08-24T02:18:15.891Z,18.27
2022-08-24T02:19:17.819Z,18.26
2022-08-24T02:20:21.571Z,18.26
2022-08-24T02:21:25.159Z,18.27
2022-08-24T02:22:27.788Z,18.28
2022-08-24T02:23:29.717Z,18.29
2022-08-24T02:24:31.848Z,18.31
2022-08-24T02:25:33.817Z,18.32
2022-08-24T02:26:35.883Z,18.33
2022-08-24T02:27:38.242Z,18.35
2022-08-24T02:28:40.858Z,18.37
2022-08-24T02:29:43.372Z,18.37
2022-08-24T02:30:45.123Z,18.35
2022-08-24T02:31:47.167Z,18.35
2022-08-24T02:32:49.192Z,18.33
2022-08-24T02:33:51.049Z,18.34
2022-08-24T02:34:54.858Z,18.34
2022-08-24T02:35:57.425Z,18.33
2022-08-24T02:36:59.905Z,18.33
2022-08-24T02:38:01.955Z,18.32
2022-08-24T02:39:06.867Z,18.29
2022-08-24T02:40:10.223Z,18.28
2022-08-24T02:41:12.789Z,18.26
2022-08-24T02:42:15.563Z,18.25
2022-08-24T02:43:17.312Z,18.24
2022-08-24T02:44:20.599Z,18.23
2022-08-24T02:45:22.850Z,18.22
2022-08-24T02:46:27.943Z,18.21
2022-08-24T02:47:38.168Z,18.22
2022-08-24T02:48:41.719Z,18.23
2022-08-24T02:49:43.501Z,18.25
2022-08-24T02:50:49.159Z,18.26
2022-08-24T02:51:50.959Z,18.27
2022-08-24T02:52:54.849Z,18.24
2022-08-24T02:53:59.269Z,18.25
2022-08-24T02:55:01.348Z,18.24
2022-08-24T02:56:03.619Z,18.23
2022-08-24T02:57:06.678Z,18.21
2022-08-24T02:58:10.650Z,18.21
2022-08-24T02:59:12.617Z,18.20
2022-08-24T03:00:18.942Z,18.20
2022-08-24T03:01:30.445Z,18.20
2022-08-24T03:02:32.703Z,18.20
2022-08-24T03:03:35.935Z,18.19
2022-08-24T03:04:37.826Z,18.20
2022-08-24T03:05:40.059Z,18.23
2022-08-24T03:06:42.433Z,18.24
2022-08-24T03:07:44.451Z,18.24
2022-08-24T03:08:47.907Z,18.22
2022-08-24T03:09:58.306Z,18.21
2022-08-24T03:11:00.607Z,18.19
2022-08-24T03:12:02.503Z,18.17
2022-08-24T03:13:04.860Z,18.15
2022-08-24T03:14:08.031Z,18.14
2022-08-24T03:15:12.766Z,18.11
2022-08-24T03:16:14.806Z,18.10
2022-08-24T03:17:16.667Z,18.09
2022-08-24T03:18:19.261Z,18.08
2022-08-24T03:19:27.340Z,18.06
2022-08-24T03:20:29.432Z,18.04
2022-08-24T03:21:33.142Z,18.01
2022-08-24T03:22:34.922Z,18.00
2022-08-24T03:23:37.182Z,17.99
2022-08-24T03:24:39.599Z,17.97
2022-08-24T03:25:41.952Z,17.96
2022-08-24T03:26:44.466Z,17.95
2022-08-24T03:27:46.873Z,17.95
2022-08-24T03:28:49.547Z,17.94
2022-08-24T03:29:51.623Z,17.96
2022-08-24T03:30:53.643Z,17.99
2022-08-24T03:31:57.448Z,18.01
2022-08-24T03:33:01.200Z,18.03
2022-08-24T03:34:04.196Z,18.04
2022-08-24T03:35:06.620Z,18.05
2022-08-24T03:36:12.424Z,18.05
2022-08-24T03:37:16.373Z,18.06
2022-08-24T03:38:18.341Z,18.06
2022-08-24T03:39:20.326Z,18.06
2022-08-24T03:40:24.655Z,18.06
2022-08-24T03:41:28.896Z,18.06
2022-08-24T03:42:30.653Z,18.06
2022-08-24T03:43:46.883Z,18.06
2022-08-24T03:44:49.790Z,18.06
2022-08-24T03:45:52.247Z,18.06
2022-08-24T03:46:54.237Z,18.06
2022-08-24T03:47:57.033Z,18.07
2022-08-24T03:48:59.375Z,18.07
2022-08-24T03:50:01.508Z,18.07
2022-08-24T03:51:04.826Z,18.07
2022-08-24T03:52:07.098Z,18.06
2022-08-24T03:53:08.898Z,18.05
2022-08-24T03:54:12.526Z,18.05
2022-08-24T03:55:14.803Z,18.04
2022-08-24T03:56:17.437Z,18.05
2022-08-24T03:57:19.716Z,18.05
2022-08-24T03:58:21.612Z,18.06
2022-08-24T03:59:24.291Z,18.08
2022-08-24T04:00:28.711Z,18.11
2022-08-24T04:01:31.279Z,18.13
2022-08-24T04:02:33.698Z,18.13
2022-08-24T04:03:38.342Z,18.14
2022-08-24T04:04:40.085Z,18.16
2022-08-24T04:05:42.413Z,18.16
2022-08-24T04:06:46.806Z,18.16
2022-08-24T04:07:49.038Z,18.16
2022-08-24T04:08:52.252Z,18.16
2022-08-24T04:09:55.129Z,18.16
2022-08-24T04:10:58.445Z,18.16
2022-08-24T04:12:00.220Z,18.16
2022-08-24T04:13:02.478Z,18.16
2022-08-24T04:14:04.930Z,18.16
2022-08-24T04:15:07.213Z,18.15
2022-08-24T04:16:17.240Z,18.16
2022-08-24T04:17:19.556Z,18.17
2022-08-24T04:18:25.701Z,18.19
2022-08-24T04:19:30.718Z,18.23
2022-08-24T04:20:38.924Z,18.25
2022-08-24T04:21:40.875Z,18.29
2022-08-24T04:22:42.854Z,18.32
2022-08-24T04:23:48.169Z,18.34
2022-08-24T04:24:51.902Z,18.35
2022-08-24T04:25:53.844Z,18.36
2022-08-24T04:26:55.894Z,18.39
2022-08-24T04:27:59.758Z,18.41
2022-08-24T04:29:02.360Z,18.43
2022-08-24T04:30:14.053Z,18.44
2022-08-24T04:31:59.173Z,18.43
2022-08-24T04:33:01.237Z,18.44
2022-08-24T04:34:03.513Z,18.44
2022-08-24T04:35:06.314Z,18.44
2022-08-24T04:36:10.158Z,18.44
2022-08-24T04:37:14.590Z,18.44
2022-08-24T04:38:19.389Z,18.44
2022-08-24T04:39:33.704Z,18.45
2022-08-24T04:40:50.596Z,18.47
2022-08-24T04:41:52.430Z,18.48
2022-08-24T04:42:55.410Z,18.51
2022-08-24T04:43:57.716Z,18.55
2022-08-24T04:44:59.526Z,18.57
2022-08-24T04:46:08.335Z,18.61
2022-08-24T04:47:10.117Z,18.65
2022-08-24T04:48:14.474Z,18.68
2022-08-24T04:49:16.500Z,18.71
2022-08-24T04:50:18.397Z,18.75
2022-08-24T04:51:25.880Z,18.78
2022-08-24T04:52:29.114Z,18.80
2022-08-24T04:53:31.926Z,18.83
2022-08-24T04:54:34.176Z,18.86
2022-08-24T04:55:50.267Z,18.91
2022-08-24T04:56:52.546Z,18.95
2022-08-24T04:57:54.325Z,18.98
2022-08-24T04:58:56.320Z,19.03
2022-08-24T04:59:58.375Z,19.07
2022-08-24T05:01:00.430Z,19.11
2022-08-24T05:02:02.357Z,19.16
2022-08-24T05:03:04.532Z,19.23
2022-08-24T05:04:06.474Z,19.32
2022-08-24T05:05:09.778Z,19.41
2022-08-24T05:06:15.353Z,19.48
2022-08-24T05:07:18.371Z,19.53
2022-08-24T05:08:20.566Z,19.57
2022-08-24T05:09:22.282Z,19.58
2022-08-24T05:10:24.594Z,19.57
2022-08-24T05:11:29.973Z,19.54
2022-08-24T05:12:32.093Z,19.50
2022-08-24T05:13:37.520Z,19.48
2022-08-24T05:14:39.264Z,19.47
2022-08-24T05:15:43.225Z,19.46
2022-08-24T05:16:51.001Z,19.44
2022-08-24T05:17:54.635Z,19.44
2022-08-24T05:18:56.665Z,19.42
2022-08-24T05:19:58.753Z,19.41
2022-08-24T05:21:00.742Z,19.39
2022-08-24T05:22:03.778Z,19.37
2022-08-24T05:23:05.976Z,19.35
2022-08-24T05:24:12.802Z,19.32
2022-08-24T05:25:15.825Z,19.30
2022-08-24T05:26:25.830Z,19.28
2022-08-24T05:27:28.724Z,19.26
2022-08-24T05:28:31.735Z,19.26
2022-08-24T05:29:34.680Z,19.24
2022-08-24T05:30:41.979Z,19.23
2022-08-24T05:31:46.232Z,19.21
2022-08-24T05:32:49.275Z,19.19
2022-08-24T05:33:52.118Z,19.17
2022-08-24T05:34:54.017Z,19.15
2022-08-24T05:35:55.882Z,19.12
2022-08-24T05:36:58.180Z,19.08
2022-08-24T05:38:07.407Z,19.04
2022-08-24T05:39:14.489Z,19.01
2022-08-24T05:40:19.735Z,18.99
2022-08-24T05:41:29.415Z,18.96
2022-08-24T05:42:41.802Z,18.93
2022-08-24T05:43:44.348Z,18.92
2022-08-24T05:44:46.157Z,18.90
2022-08-24T05:45:49.809Z,18.89
2022-08-24T05:46:51.651Z,18.88
2022-08-24T05:47:53.395Z,18.88
2022-08-24T05:49:45.833Z,18.86
2022-08-24T05:50:55.542Z,18.88
2022-08-24T05:51:57.847Z,18.90
2022-08-24T05:53:00.341Z,18.92
2022-08-24T05:54:04.418Z,18.95
2022-08-24T05:55:14.074Z,18.98
2022-08-24T05:56:18.536Z,19.00
2022-08-24T05:57:22.250Z,19.03
2022-08-24T05:58:37.755Z,19.08
2022-08-24T05:59:40.115Z,19.07
2022-08-24T06:00:49.697Z,19.07
2022-08-24T06:01:51.681Z,19.08
2022-08-24T06:02:53.759Z,19.12
2022-08-24T06:03:57.480Z,19.16
2022-08-24T06:04:59.214Z,19.18
2022-08-24T06:06:03.785Z,19.20
2022-08-24T06:07:10.221Z,19.22
2022-08-24T06:08:13.195Z,19.24
2022-08-24T06:09:15.078Z,19.26
2022-08-24T06:10:35.990Z,19.28
2022-08-24T06:11:40.908Z,19.30
2022-08-24T06:12:42.763Z,19.32
2022-08-24T06:13:44.510Z,19.34
2022-08-24T06:14:47.918Z,19.39
2022-08-24T06:16:20.308Z,19.43
2022-08-24T06:17:23.018Z,19.46
2022-08-24T06:18:26.545Z,19.46
2022-08-24T06:19:28.896Z,19.47
2022-08-24T06:20:32.165Z,19.48
2022-08-24T06:21:34.099Z,19.48
2022-08-24T06:22:35.803Z,19.48
2022-08-24T06:23:39.947Z,19.47
2022-08-24T06:25:01.705Z,19.48
2022-08-24T06:26:23.675Z,19.48
2022-08-24T06:27:26.285Z,19.46
2022-08-24T06:28:30.597Z,19.45
2022-08-24T06:29:34.091Z,19.46
2022-08-24T06:30:48.984Z,19.47
2022-08-24T06:31:54.676Z,19.50
2022-08-24T06:33:00.723Z,19.54
2022-08-24T06:34:13.230Z,19.57
2022-08-24T06:35:14.949Z,19.59
2022-08-24T06:36:18.534Z,19.63
2022-08-24T06:37:27.538Z,19.68
2022-08-24T06:38:31.412Z,19.70
2022-08-24T06:39:33.419Z,19.70
2022-08-24T06:40:36.429Z,19.72
2022-08-24T06:41:39.415Z,19.75
2022-08-24T06:42:44.108Z,19.74
2022-08-24T06:43:56.984Z,19.74
2022-08-24T06:45:03.240Z,19.77
2022-08-24T06:46:06.642Z,19.79
2022-08-24T06:47:14.150Z,19.78
2022-08-24T06:48:16.342Z,19.76
2022-08-24T06:49:19.236Z,19.73
2022-08-24T06:50:22.105Z,19.71
2022-08-24T06:51:26.474Z,19.72
2022-08-24T06:52:28.629Z,19.74
2022-08-24T06:53:30.659Z,19.74
2022-08-24T06:54:33.094Z,19.75
2022-08-24T06:55:38.098Z,19.77
2022-08-24T06:56:39.824Z,19.80
2022-08-24T06:57:41.942Z,19.80
2022-08-24T06:58:44.724Z,19.83
2022-08-24T06:59:50.066Z,19.85
2022-08-24T07:00:55.144Z,19.86
2022-08-24T07:01:58.311Z,19.87
2022-08-24T07:03:02.214Z,19.87
2022-08-24T07:04:05.013Z,19.84
2022-08-24T07:05:35.838Z,19.78
2022-08-24T07:06:55.140Z,19.73
2022-08-24T07:07:57.682Z,19.71
2022-08-24T07:09:00.663Z,19.68
2022-08-24T07:10:02.506Z,19.68
2022-08-24T07:11:05.821Z,19.72
2022-08-24T07:12:07.939Z,19.77
2022-08-24T07:13:11.490Z,19.81
2022-08-24T07:14:14.126Z,19.85
2022-08-24T07:15:16.671Z,19.86
2022-08-24T07:16:21.352Z,19.88
2022-08-24T07:17:26.293Z,19.92
2022-08-24T07:18:28.957Z,19.96
2022-08-24T07:19:30.822Z,20.03
2022-08-24T07:20:32.576Z,20.08
2022-08-24T07:21:42.682Z,20.11
2022-08-24T07:22:45.353Z,20.12
2022-08-24T07:23:54.013Z,20.12
2022-08-24T07:24:55.708Z,20.13
2022-08-24T07:25:57.529Z,20.16
2022-08-24T07:27:00.823Z,20.20
2022-08-24T07:28:06.763Z,20.20
2022-08-24T07:29:43.573Z,20.20
2022-08-24T07:30:39.736Z,20.19
2022-08-24T07:31:44.211Z,20.18
2022-08-24T07:32:57.545Z,20.14
2022-08-24T07:33:59.853Z,20.12
2022-08-24T07:35:01.604Z,20.11
2022-08-24T07:36:03.936Z,20.11
2022-08-24T07:37:07.853Z,20.13
2022-08-24T07:38:12.868Z,20.13
2022-08-24T07:39:14.971Z,20.12
2022-08-24T07:40:18.068Z,20.12
2022-08-24T07:41:51.318Z,20.10
2022-08-24T07:42:48.802Z,20.06
2022-08-24T07:43:50.591Z,20.06
2022-08-24T07:44:52.280Z,20.04
2022-08-24T07:45:54.362Z,20.01
2022-08-24T07:46:57.068Z,19.99
2022-08-24T07:49:29.379Z,20.06
2022-08-24T07:50:37.243Z,20.13
2022-08-24T07:51:46.771Z,20.20
2022-08-24T07:52:49.071Z,20.26
2022-08-24T07:53:53.923Z,20.32
2022-08-24T07:54:57.590Z,20.39
2022-08-24T07:55:59.445Z,20.42
2022-08-24T07:57:04.793Z,20.42
2022-08-24T07:58:07.358Z,20.42
2022-08-24T07:59:13.096Z,20.42
2022-08-24T08:00:19.575Z,20.44
2022-08-24T08:01:23.373Z,20.49
2022-08-24T08:02:29.958Z,20.54
2022-08-24T08:03:38.281Z,20.61
2022-08-24T08:04:40.865Z,20.63
2022-08-24T08:05:43.213Z,20.62
2022-08-24T08:06:45.060Z,20.58
2022-08-24T08:07:51.502Z,20.53
2022-08-24T08:08:54.289Z,20.50
2022-08-24T08:09:56.094Z,20.51
2022-08-24T08:10:58.101Z,20.51
2022-08-24T08:11:59.973Z,20.53
2022-08-24T08:13:03.553Z,20.56
2022-08-24T08:14:06.385Z,20.63
2022-08-24T08:15:09.903Z,20.70
2022-08-24T08:16:12.743Z,20.75
2022-08-24T08:17:15.190Z,20.80
2022-08-24T08:18:19.586Z,20.82
2022-08-24T08:19:21.355Z,20.87
2022-08-24T08:20:23.162Z,20.91
2022-08-24T08:21:43.733Z,20.93
2022-08-24T08:23:05.090Z,20.97
2022-08-24T08:24:15.243Z,21.07
2022-08-24T08:25:19.271Z,21.17
2022-08-24T08:26:21.268Z,21.27
2022-08-24T08:27:35.822Z,21.34
2022-08-24T08:28:38.172Z,21.35
2022-08-24T08:29:40.901Z,21.31
2022-08-24T08:30:42.808Z,21.27
2022-08-24T08:31:45.922Z,21.25
2022-08-24T08:32:47.778Z,21.24
2022-08-24T08:33:49.488Z,21.24
2022-08-24T08:34:52.898Z,21.23
2022-08-24T08:36:19.242Z,21.21
2022-08-24T08:37:26.075Z,21.17
2022-08-24T08:38:28.986Z,21.20
2022-08-24T08:39:33.986Z,21.27
2022-08-24T08:40:41.557Z,21.36
2022-08-24T08:42:30.513Z,21.39
2022-08-24T08:43:46.297Z,21.42
2022-08-24T08:45:06.467Z,21.45
2022-08-24T08:46:24.235Z,21.43
2022-08-24T08:48:07.860Z,21.38
2022-08-24T08:49:45.032Z,21.37
2022-08-24T08:51:26.686Z,21.41
2022-08-24T08:52:43.621Z,21.37
2022-08-24T08:54:01.349Z,21.33
2022-08-24T08:55:29.370Z,21.34
2022-08-24T08:57:06.482Z,21.34
2022-08-24T08:58:19.676Z,21.35
2022-08-24T08:59:59.116Z,21.36
2022-08-24T09:01:10.655Z,21.34
2022-08-24T09:02:16.013Z,21.33
2022-08-24T09:03:32.832Z,21.30
2022-08-24T09:05:47.471Z,21.23
2022-08-24T09:07:10.098Z,21.21
2022-08-24T09:08:57.843Z,21.22
2022-08-24T09:10:42.170Z,21.23
2022-08-24T09:12:08.254Z,21.27
2022-08-24T09:13:42.490Z,21.31
2022-08-24T09:15:09.903Z,21.30
2022-08-24T09:16:43.432Z,21.29
2022-08-24T09:18:16.908Z,21.27
2022-08-24T09:19:40.344Z,21.34
2022-08-24T09:21:33.969Z,21.41
2022-08-24T09:22:43.523Z,21.53
2022-08-24T09:24:05.949Z,21.61
2022-08-24T09:25:16.351Z,21.75
2022-08-24T09:26:27.163Z,21.87
2022-08-24T09:28:05.285Z,22.01
2022-08-24T09:29:19.080Z,22.09
2022-08-24T09:30:27.560Z,22.10
2022-08-24T09:32:00.958Z,22.11
2022-08-24T09:33:21.235Z,22.07
2022-08-24T09:34:35.569Z,22.09
2022-08-24T09:36:02.083Z,22.11
2022-08-24T09:37:28.481Z,22.11
2022-08-24T09:39:06.133Z,22.13
2022-08-24T09:40:35.961Z,22.19
2022-08-24T09:41:59.925Z,22.28
2022-08-24T09:43:58.316Z,22.30
2022-08-24T09:45:20.324Z,22.31
2022-08-24T09:47:06.553Z,22.33
2022-08-24T09:48:15.833Z,22.35
2022-08-24T09:49:50.944Z,22.37
2022-08-24T09:51:26.296Z,22.42
2022-08-24T09:52:42.829Z,22.42
2022-08-24T09:54:20.634Z,22.40
2022-08-24T09:55:34.318Z,22.37
2022-08-24T09:56:51.486Z,22.39
2022-08-24T09:58:03.674Z,22.49
2022-08-24T09:59:18.597Z,22.55
2022-08-24T10:00:31.242Z,22.59
2022-08-24T10:01:41.768Z,22.56
2022-08-24T10:03:02.727Z,22.53
2022-08-24T10:04:19.642Z,22.48
2022-08-24T10:05:36.344Z,22.45
2022-08-24T10:06:55.827Z,22.52
2022-08-24T10:08:39.361Z,22.66
2022-08-24T10:10:10.520Z,22.90
2022-08-24T10:11:12.118Z,23.10
2022-08-24T10:12:55.570Z,23.16
2022-08-24T10:14:23.839Z,23.24
2022-08-24T10:15:36.668Z,23.35
2022-08-24T10:16:42.302Z,23.44
2022-08-24T10:18:08.378Z,23.46
2022-08-24T10:19:19.245Z,23.38
2022-08-24T10:20:24.381Z,23.27
2022-08-24T10:21:29.081Z,23.16
2022-08-24T10:22:49.564Z,23.09
2022-08-24T10:24:03.234Z,23.03
2022-08-24T10:25:30.110Z,23.03
2022-08-24T10:27:00.172Z,23.14
2022-08-24T10:28:37.645Z,23.28
2022-08-24T10:30:16.066Z,23.45
2022-08-24T10:31:43.708Z,23.58
2022-08-24T10:33:28.788Z,23.79
2022-08-24T10:34:42.396Z,24.07
2022-08-24T10:35:56.232Z,24.23
2022-08-24T10:37:06.853Z,24.30
2022-08-24T10:38:47.733Z,24.31
2022-08-24T10:39:57.841Z,24.37
2022-08-24T10:41:33.850Z,24.46
2022-08-24T10:43:26.095Z,24.58
2022-08-24T10:44:48.679Z,24.76
2022-08-24T10:46:10.080Z,24.78
2022-08-24T10:47:30.897Z,24.77
2022-08-24T10:49:20.261Z,24.71
2022-08-24T10:50:55.754Z,24.81
2022-08-24T10:52:16.870Z,25.07
2022-08-24T10:53:24.360Z,25.27
2022-08-24T10:54:26.502Z,25.43
2022-08-24T10:55:32.409Z,25.61
2022-08-24T10:56:40.104Z,25.76
2022-08-24T10:57:56.552Z,25.90
2022-08-24T10:59:27.123Z,26.02
2022-08-24T11:00:30.700Z,26.03
2022-08-24T11:01:35.956Z,26.04
2022-08-24T11:02:40.397Z,26.07
2022-08-24T11:04:25.339Z,26.17
2022-08-24T11:05:41.737Z,26.31
2022-08-24T11:07:05.670Z,26.31
2022-08-24T11:08:07.898Z,26.24
2022-08-24T11:09:19.285Z,26.23
2022-08-24T11:10:28.618Z,26.33
2022-08-24T11:11:42.551Z,26.45
2022-08-24T11:12:44.729Z,26.35
2022-08-24T11:13:59.186Z,26.28
2022-08-24T11:15:10.851Z,26.31
2022-08-24T11:16:25.803Z,26.41
2022-08-24T11:17:30.184Z,26.43
2022-08-24T11:18:55.320Z,26.43
2022-08-24T11:19:59.252Z,26.55
2022-08-24T11:21:02.760Z,26.68
2022-08-24T11:22:27.402Z,26.81
2022-08-24T11:23:36.478Z,26.88
2022-08-24T11:24:46.507Z,26.91
2022-08-24T11:26:05.222Z,26.92
2022-08-24T11:27:16.176Z,26.94
2022-08-24T11:28:25.452Z,27.00
2022-08-24T11:29:49.871Z,27.07
2022-08-24T11:30:51.639Z,27.20
2022-08-24T11:31:53.475Z,27.28
2022-08-24T11:33:04.718Z,27.35
2022-08-24T11:34:10.642Z,27.39
2022-08-24T11:35:34.823Z,27.39
2022-08-24T11:36:39.115Z,27.33
2022-08-24T11:37:40.869Z,27.29
2022-08-24T11:38:45.817Z,27.32
2022-08-24T11:39:47.706Z,27.37
2022-08-24T11:40:52.402Z,27.42
2022-08-24T11:42:03.317Z,27.45
2022-08-24T11:43:13.919Z,27.51
2022-08-24T11:44:38.772Z,27.62
2022-08-24T11:46:04.130Z,27.78
2022-08-24T11:47:24.658Z,27.90
2022-08-24T11:48:36.217Z,28.01
2022-08-24T11:50:14.538Z,28.07
2022-08-24T11:51:35.623Z,28.17
2022-08-24T11:53:00.619Z,28.31
2022-08-24T11:54:19.496Z,28.39
2022-08-24T11:55:38.496Z,28.40
2022-08-24T11:57:10.785Z,28.38
2022-08-24T11:58:23.159Z,28.33
2022-08-24T11:59:48.199Z,28.38
2022-08-24T12:01:34.788Z,28.53
2022-08-24T12:02:55.408Z,28.55
2022-08-24T12:04:31.982Z,28.59
2022-08-24T12:05:53.365Z,28.82
2022-08-24T12:07:07.877Z,28.94
2022-08-24T12:08:34.397Z,29.06
2022-08-24T12:10:00.757Z,29.13
2022-08-24T12:11:19.377Z,29.10
2022-08-24T12:12:38.827Z,29.09
2022-08-24T12:13:59.061Z,29.08
2022-08-24T12:15:24.929Z,29.13
2022-08-24T12:16:47.829Z,29.05
2022-08-24T12:18:13.089Z,29.00
2022-08-24T12:19:35.723Z,29.00
2022-08-24T12:20:43.664Z,29.02
2022-08-24T12:21:55.739Z,29.16
2022-08-24T12:23:02.893Z,29.26
2022-08-24T12:24:13.095Z,29.36
2022-08-24T12:25:35.994Z,29.40
2022-08-24T12:26:45.564Z,29.45
2022-08-24T12:27:47.353Z,29.53
2022-08-24T12:28:59.966Z,29.63
2022-08-24T12:30:07.353Z,29.79
2022-08-24T12:31:31.811Z,29.92
2022-08-24T12:32:42.422Z,30.01
2022-08-24T12:33:51.537Z,30.04
2022-08-24T12:35:14.857Z,29.97
2022-08-24T12:36:51.325Z,29.90
2022-08-24T12:38:09.578Z,29.90
2022-08-24T12:39:19.734Z,29.88
2022-08-24T12:40:42.712Z,29.86
2022-08-24T12:42:27.763Z,29.87
2022-08-24T12:43:44.999Z,29.91
2022-08-24T12:44:58.794Z,29.97
2022-08-24T12:46:01.354Z,30.07
2022-08-24T12:47:03.525Z,30.15
2022-08-24T12:48:14.862Z,30.22
2022-08-24T12:49:27.042Z,30.36
2022-08-24T12:50:46.492Z,30.52
2022-08-24T12:52:18.947Z,30.56
2022-08-24T12:53:42.443Z,30.59
2022-08-24T12:55:14.350Z,30.75
2022-08-24T12:56:37.869Z,30.74
2022-08-24T12:58:00.663Z,30.62
2022-08-24T12:59:21.100Z,30.49
2022-08-24T13:00:32.822Z,30.38
2022-08-24T13:01:42.073Z,30.33
2022-08-24T13:02:55.001Z,30.34
2022-08-24T13:04:41.673Z,30.29
2022-08-24T13:05:48.478Z,30.29
2022-08-24T13:07:05.239Z,30.34
2022-08-24T13:08:16.185Z,30.45
2022-08-24T13:09:31.183Z,30.51
2022-08-24T13:10:45.202Z,30.51
2022-08-24T13:11:47.334Z,30.49
2022-08-24T13:13:09.253Z,30.47
2022-08-24T13:14:31.178Z,30.54
2022-08-24T13:15:32.975Z,30.78
2022-08-24T13:16:49.202Z,30.99
2022-08-24T13:17:57.784Z,31.08
2022-08-24T13:19:32.386Z,31.03
2022-08-24T13:20:36.697Z,30.86
2022-08-24T13:21:43.350Z,30.76
2022-08-24T13:23:21.738Z,30.66
2022-08-24T13:24:29.626Z,30.63
2022-08-24T13:25:58.065Z,30.81
2022-08-24T13:27:11.744Z,31.05
2022-08-24T13:28:22.720Z,31.17
2022-08-24T13:29:34.768Z,31.30
2022-08-24T13:31:08.635Z,31.37
2022-08-24T13:32:44.157Z,31.26
2022-08-24T13:33:53.957Z,31.41
2022-08-24T13:34:58.620Z,31.63
2022-08-24T13:36:06.262Z,31.55
2022-08-24T13:37:22.389Z,31.28
2022-08-24T13:38:24.041Z,31.05
2022-08-24T13:39:56.893Z,30.99
2022-08-24T13:41:10.496Z,31.02
2022-08-24T13:42:27.256Z,31.05
2022-08-24T13:43:49.221Z,31.13
2022-08-24T13:45:15.817Z,31.37
2022-08-24T13:46:32.291Z,31.51
2022-08-24T13:48:08.404Z,31.70
2022-08-24T13:49:31.042Z,31.79
2022-08-24T13:50:46.179Z,31.87
2022-08-24T13:52:22.389Z,31.92
2022-08-24T13:54:13.638Z,31.57
2022-08-24T13:55:41.755Z,31.12
2022-08-24T13:56:59.825Z,31.10
2022-08-24T13:58:39.508Z,31.22
2022-08-24T14:00:17.994Z,31.47
2022-08-24T14:01:38.134Z,31.40
2022-08-24T14:02:51.552Z,31.31
2022-08-24T14:04:16.096Z,31.31
2022-08-24T14:05:30.002Z,31.42
2022-08-24T14:06:41.088Z,31.51
2022-08-24T14:08:07.945Z,31.49
2022-08-24T14:09:21.438Z,31.41
2022-08-24T14:10:41.365Z,31.36
2022-08-24T14:12:14.425Z,31.38
2022-08-24T14:13:32.927Z,31.65
2022-08-24T14:14:54.715Z,31.65
2022-08-24T14:16:46.431Z,31.58
2022-08-24T14:17:58.766Z,31.63
2022-08-24T14:19:17.329Z,31.72
2022-08-24T14:20:52.962Z,31.88
2022-08-24T14:22:09.766Z,31.95
2022-08-24T14:23:39.368Z,32.05
2022-08-24T14:24:49.640Z,32.13
2022-08-24T14:26:30.074Z,32.18
2022-08-24T14:27:39.699Z,31.83
2022-08-24T14:28:43.575Z,31.48
2022-08-24T14:29:47.173Z,31.37
2022-08-24T14:31:14.954Z,31.34
2022-08-24T14:32:22.743Z,31.17
2022-08-24T14:33:43.538Z,31.06
2022-08-24T14:35:05.155Z,31.00
2022-08-24T14:36:21.576Z,30.84
2022-08-24T14:37:29.620Z,30.50
2022-08-24T14:38:48.291Z,30.29
2022-08-24T14:39:55.942Z,30.31
2022-08-24T14:41:03.807Z,30.35
2022-08-24T14:42:32.991Z,30.38
2022-08-24T14:44:06.078Z,30.45
2022-08-24T14:45:10.637Z,30.46
2022-08-24T14:46:29.130Z,30.54
2022-08-24T14:48:08.825Z,30.57
2022-08-24T14:49:35.815Z,30.55
2022-08-24T14:50:55.934Z,30.45
2022-08-24T14:52:35.423Z,30.44
2022-08-24T14:53:39.722Z,30.39
2022-08-24T14:54:59.834Z,30.38
2022-08-24T14:56:32.040Z,30.53
2022-08-24T14:57:56.701Z,30.66
2022-08-24T14:59:13.148Z,30.60
2022-08-24T15:00:23.202Z,30.64
2022-08-24T15:01:40.793Z,30.70
2022-08-24T15:02:51.230Z,30.74
2022-08-24T15:04:11.562Z,30.70
2022-08-24T15:05:27.099Z,30.65
2022-08-24T15:06:47.166Z,30.59
2022-08-24T15:07:59.813Z,30.48
2022-08-24T15:09:09.125Z,30.36
2022-08-24T15:10:15.152Z,30.30
2022-08-24T15:11:27.709Z,30.30
2022-08-24T15:12:42.618Z,30.24